sensor_id;sensor_type;location;lat;lon;timestamp;P1;durP1;ratioP1;P2;durP2;ratioP2
59872;SDS011;50750;51.636;4.948;2023-05-28T00:00:15;4.80;;;2.80;;
59872;SDS011;50750;51.636;4.948;2023-05-28T00:03:02;5.50;;;2.90;;
59872;SDS011;50750;51.636;4.948;2023-05-28T00:05:29;4.80;;;2.90;;
59872;SDS011;50750;51.636;4.948;2023-05-28T00:07:55;6.20;;;3.20;;
59872;SDS011;50750;51.636;4.948;2023-05-28T00:10:26;5.30;;;2.80;;
59872;SDS011;50750;51.636;4.948;2023-05-28T00:12:53;4.00;;;2.70;;
59872;SDS011;50750;51.636;4.948;2023-05-28T00:15:19;5.50;;;2.90;;
59872;SDS011;50750;51.636;4.948;2023-05-28T00:17:47;5.20;;;2.70;;
59872;SDS011;50750;51.636;4.948;2023-05-28T00:20:14;6.30;;;3.40;;
59872;SDS011;50750;51.636;4.948;2023-05-28T00:22:42;5.00;;;3.00;;
59872;SDS011;50750;51.636;4.948;2023-05-28T00:25:08;5.30;;;2.80;;
59872;SDS011;50750;51.636;4.948;2023-05-28T00:27:37;5.30;;;2.70;;
59872;SDS011;50750;51.636;4.948;2023-05-28T00:30:03;4.70;;;2.80;;
59872;SDS011;50750;51.636;4.948;2023-05-28T00:32:30;4.80;;;3.10;;
59872;SDS011;50750;51.636;4.948;2023-05-28T00:34:57;4.40;;;2.80;;
59872;SDS011;50750;51.636;4.948;2023-05-28T00:37:24;4.80;;;2.80;;
59872;SDS011;50750;51.636;4.948;2023-05-28T00:39:50;5.20;;;3.00;;
59872;SDS011;50750;51.636;4.948;2023-05-28T00:42:17;5.70;;;2.90;;
59872;SDS011;50750;51.636;4.948;2023-05-28T00:44:44;5.80;;;2.90;;
59872;SDS011;50750;51.636;4.948;2023-05-28T00:47:11;5.90;;;3.30;;
59872;SDS011;50750;51.636;4.948;2023-05-28T00:49:40;4.60;;;3.00;;
59872;SDS011;50750;51.636;4.948;2023-05-28T00:52:08;6.20;;;3.30;;
59872;SDS011;50750;51.636;4.948;2023-05-28T00:54:36;5.40;;;3.30;;
59872;SDS011;50750;51.636;4.948;2023-05-28T00:57:03;6.00;;;3.00;;
59872;SDS011;50750;51.636;4.948;2023-05-28T00:59:30;5.40;;;2.90;;
59872;SDS011;50750;51.636;4.948;2023-05-28T01:02:00;5.00;;;3.20;;
59872;SDS011;50750;51.636;4.948;2023-05-28T01:04:27;6.00;;;3.30;;
59872;SDS011;50750;51.636;4.948;2023-05-28T01:07:00;4.90;;;2.80;;
59872;SDS011;50750;51.636;4.948;2023-05-28T01:09:27;4.90;;;2.90;;
59872;SDS011;50750;51.636;4.948;2023-05-28T01:11:53;5.30;;;2.90;;
59872;SDS011;50750;51.636;4.948;2023-05-28T01:14:21;5.50;;;2.90;;
59872;SDS011;50750;51.636;4.948;2023-05-28T01:16:49;5.30;;;3.20;;
59872;SDS011;50750;51.636;4.948;2023-05-28T01:19:17;6.20;;;3.50;;
59872;SDS011;50750;51.636;4.948;2023-05-28T01:21:46;4.40;;;2.90;;
59872;SDS011;50750;51.636;4.948;2023-05-28T01:24:21;7.40;;;2.90;;
59872;SDS011;50750;51.636;4.948;2023-05-28T01:26:49;5.40;;;2.90;;
59872;SDS011;50750;51.636;4.948;2023-05-28T01:29:17;6.00;;;2.80;;
59872;SDS011;50750;51.636;4.948;2023-05-28T01:31:44;4.50;;;2.90;;
59872;SDS011;50750;51.636;4.948;2023-05-28T01:34:11;6.20;;;3.60;;
59872;SDS011;50750;51.636;4.948;2023-05-28T01:37:01;6.70;;;3.00;;
59872;SDS011;50750;51.636;4.948;2023-05-28T01:39:35;6.00;;;2.90;;
59872;SDS011;50750;51.636;4.948;2023-05-28T01:42:08;6.40;;;3.00;;
59872;SDS011;50750;51.636;4.948;2023-05-28T01:44:35;4.70;;;2.90;;
59872;SDS011;50750;51.636;4.948;2023-05-28T01:47:02;5.20;;;2.90;;
59872;SDS011;50750;51.636;4.948;2023-05-28T01:49:29;5.20;;;2.90;;
59872;SDS011;50750;51.636;4.948;2023-05-28T01:51:56;7.40;;;3.00;;
59872;SDS011;50750;51.636;4.948;2023-05-28T01:54:23;7.00;;;3.30;;
59872;SDS011;50750;51.636;4.948;2023-05-28T01:56:49;6.90;;;2.90;;
59872;SDS011;50750;51.636;4.948;2023-05-28T01:59:16;5.70;;;3.10;;
59872;SDS011;50750;51.636;4.948;2023-05-28T02:01:42;5.00;;;3.00;;
59872;SDS011;50750;51.636;4.948;2023-05-28T02:04:09;5.60;;;2.90;;
59872;SDS011;50750;51.636;4.948;2023-05-28T02:06:36;4.80;;;2.80;;
59872;SDS011;50750;51.636;4.948;2023-05-28T02:09:02;4.30;;;2.90;;
59872;SDS011;50750;51.636;4.948;2023-05-28T02:11:29;7.10;;;3.20;;
59872;SDS011;50750;51.636;4.948;2023-05-28T02:13:55;6.80;;;3.20;;
59872;SDS011;50750;51.636;4.948;2023-05-28T02:16:22;5.70;;;2.90;;
59872;SDS011;50750;51.636;4.948;2023-05-28T02:18:50;6.20;;;3.20;;
59872;SDS011;50750;51.636;4.948;2023-05-28T02:21:18;6.40;;;2.80;;
59872;SDS011;50750;51.636;4.948;2023-05-28T02:23:46;4.90;;;2.60;;
59872;SDS011;50750;51.636;4.948;2023-05-28T02:26:14;5.70;;;2.70;;
59872;SDS011;50750;51.636;4.948;2023-05-28T02:28:41;5.10;;;3.00;;
59872;SDS011;50750;51.636;4.948;2023-05-28T02:31:12;5.60;;;2.80;;
59872;SDS011;50750;51.636;4.948;2023-05-28T02:33:39;5.20;;;2.90;;
59872;SDS011;50750;51.636;4.948;2023-05-28T02:36:08;4.80;;;2.70;;
59872;SDS011;50750;51.636;4.948;2023-05-28T02:38:38;4.80;;;3.00;;
59872;SDS011;50750;51.636;4.948;2023-05-28T02:41:05;5.90;;;2.80;;
59872;SDS011;50750;51.636;4.948;2023-05-28T02:43:32;4.90;;;2.80;;
59872;SDS011;50750;51.636;4.948;2023-05-28T02:45:59;5.40;;;3.10;;
59872;SDS011;50750;51.636;4.948;2023-05-28T02:48:26;6.30;;;3.00;;
59872;SDS011;50750;51.636;4.948;2023-05-28T02:50:53;5.30;;;2.80;;
59872;SDS011;50750;51.636;4.948;2023-05-28T02:53:20;5.00;;;2.70;;
59872;SDS011;50750;51.636;4.948;2023-05-28T02:55:47;5.70;;;3.30;;
59872;SDS011;50750;51.636;4.948;2023-05-28T02:58:14;5.30;;;3.00;;
59872;SDS011;50750;51.636;4.948;2023-05-28T03:00:41;4.90;;;2.70;;
59872;SDS011;50750;51.636;4.948;2023-05-28T03:03:08;4.60;;;2.80;;
59872;SDS011;50750;51.636;4.948;2023-05-28T03:05:34;7.30;;;3.50;;
59872;SDS011;50750;51.636;4.948;2023-05-28T03:08:01;4.50;;;2.70;;
59872;SDS011;50750;51.636;4.948;2023-05-28T03:10:28;6.50;;;3.20;;
59872;SDS011;50750;51.636;4.948;2023-05-28T03:12:54;6.20;;;3.00;;
59872;SDS011;50750;51.636;4.948;2023-05-28T03:15:21;4.40;;;2.90;;
59872;SDS011;50750;51.636;4.948;2023-05-28T03:17:47;5.40;;;3.10;;
59872;SDS011;50750;51.636;4.948;2023-05-28T03:20:14;6.50;;;3.30;;
59872;SDS011;50750;51.636;4.948;2023-05-28T03:22:41;6.60;;;2.90;;
59872;SDS011;50750;51.636;4.948;2023-05-28T03:25:08;6.80;;;3.00;;
59872;SDS011;50750;51.636;4.948;2023-05-28T03:27:35;5.20;;;2.80;;
59872;SDS011;50750;51.636;4.948;2023-05-28T03:30:01;6.30;;;2.90;;
59872;SDS011;50750;51.636;4.948;2023-05-28T03:32:30;5.00;;;2.90;;
59872;SDS011;50750;51.636;4.948;2023-05-28T03:34:56;6.50;;;2.90;;
59872;SDS011;50750;51.636;4.948;2023-05-28T03:37:23;4.70;;;2.80;;
59872;SDS011;50750;51.636;4.948;2023-05-28T03:39:53;6.90;;;3.10;;
59872;SDS011;50750;51.636;4.948;2023-05-28T03:42:20;5.80;;;2.80;;
59872;SDS011;50750;51.636;4.948;2023-05-28T03:44:47;6.70;;;3.20;;
59872;SDS011;50750;51.636;4.948;2023-05-28T03:47:13;5.30;;;3.00;;
59872;SDS011;50750;51.636;4.948;2023-05-28T03:49:40;4.60;;;2.80;;
59872;SDS011;50750;51.636;4.948;2023-05-28T03:52:07;5.00;;;3.00;;
59872;SDS011;50750;51.636;4.948;2023-05-28T03:54:33;5.20;;;3.00;;
59872;SDS011;50750;51.636;4.948;2023-05-28T03:57:00;4.90;;;3.00;;
59872;SDS011;50750;51.636;4.948;2023-05-28T03:59:27;5.00;;;3.20;;
59872;SDS011;50750;51.636;4.948;2023-05-28T04:01:53;6.40;;;3.00;;
59872;SDS011;50750;51.636;4.948;2023-05-28T04:04:20;5.90;;;2.90;;
59872;SDS011;50750;51.636;4.948;2023-05-28T04:06:46;5.80;;;3.00;;
59872;SDS011;50750;51.636;4.948;2023-05-28T04:09:13;6.80;;;3.00;;
59872;SDS011;50750;51.636;4.948;2023-05-28T04:11:39;5.10;;;2.50;;
59872;SDS011;50750;51.636;4.948;2023-05-28T04:14:06;5.00;;;2.80;;
59872;SDS011;50750;51.636;4.948;2023-05-28T04:16:35;6.30;;;3.00;;
59872;SDS011;50750;51.636;4.948;2023-05-28T04:19:01;4.80;;;2.80;;
59872;SDS011;50750;51.636;4.948;2023-05-28T04:21:28;4.10;;;2.40;;
59872;SDS011;50750;51.636;4.948;2023-05-28T04:23:55;4.90;;;3.00;;
59872;SDS011;50750;51.636;4.948;2023-05-28T04:26:22;5.90;;;2.90;;
59872;SDS011;50750;51.636;4.948;2023-05-28T04:28:49;6.30;;;2.70;;
59872;SDS011;50750;51.636;4.948;2023-05-28T04:31:17;5.50;;;2.70;;
59872;SDS011;50750;51.636;4.948;2023-05-28T04:33:43;5.30;;;2.80;;
59872;SDS011;50750;51.636;4.948;2023-05-28T04:36:12;4.90;;;2.80;;
59872;SDS011;50750;51.636;4.948;2023-05-28T04:38:39;5.20;;;2.70;;
59872;SDS011;50750;51.636;4.948;2023-05-28T04:41:07;6.30;;;2.80;;
59872;SDS011;50750;51.636;4.948;2023-05-28T04:43:35;6.10;;;2.60;;
59872;SDS011;50750;51.636;4.948;2023-05-28T04:46:02;5.00;;;2.60;;
59872;SDS011;50750;51.636;4.948;2023-05-28T04:48:30;5.50;;;2.60;;
59872;SDS011;50750;51.636;4.948;2023-05-28T04:51:01;5.90;;;2.60;;
59872;SDS011;50750;51.636;4.948;2023-05-28T04:53:29;5.30;;;2.80;;
59872;SDS011;50750;51.636;4.948;2023-05-28T04:55:57;4.90;;;2.80;;
59872;SDS011;50750;51.636;4.948;2023-05-28T04:58:24;4.80;;;3.00;;
59872;SDS011;50750;51.636;4.948;2023-05-28T05:00:50;5.30;;;2.90;;
59872;SDS011;50750;51.636;4.948;2023-05-28T05:03:18;5.20;;;2.70;;
59872;SDS011;50750;51.636;4.948;2023-05-28T05:05:45;6.40;;;3.00;;
59872;SDS011;50750;51.636;4.948;2023-05-28T05:08:13;5.20;;;2.80;;
59872;SDS011;50750;51.636;4.948;2023-05-28T05:10:40;5.90;;;3.10;;
59872;SDS011;50750;51.636;4.948;2023-05-28T05:13:06;5.70;;;2.80;;
59872;SDS011;50750;51.636;4.948;2023-05-28T05:15:33;5.60;;;2.60;;
59872;SDS011;50750;51.636;4.948;2023-05-28T05:17:59;5.20;;;2.90;;
59872;SDS011;50750;51.636;4.948;2023-05-28T05:20:26;6.00;;;2.70;;
59872;SDS011;50750;51.636;4.948;2023-05-28T05:22:54;5.00;;;2.70;;
59872;SDS011;50750;51.636;4.948;2023-05-28T05:25:20;5.10;;;2.40;;
59872;SDS011;50750;51.636;4.948;2023-05-28T05:27:48;5.60;;;2.70;;
59872;SDS011;50750;51.636;4.948;2023-05-28T05:30:16;4.80;;;2.70;;
59872;SDS011;50750;51.636;4.948;2023-05-28T05:32:43;4.30;;;2.60;;
59872;SDS011;50750;51.636;4.948;2023-05-28T05:35:10;5.40;;;2.60;;
59872;SDS011;50750;51.636;4.948;2023-05-28T05:37:38;5.80;;;2.70;;
59872;SDS011;50750;51.636;4.948;2023-05-28T05:40:05;4.80;;;2.70;;
59872;SDS011;50750;51.636;4.948;2023-05-28T05:42:32;5.60;;;2.70;;
59872;SDS011;50750;51.636;4.948;2023-05-28T05:44:58;4.30;;;2.40;;
59872;SDS011;50750;51.636;4.948;2023-05-28T05:47:25;5.00;;;2.40;;
59872;SDS011;50750;51.636;4.948;2023-05-28T05:49:52;4.90;;;2.60;;
59872;SDS011;50750;51.636;4.948;2023-05-28T05:52:18;5.70;;;2.70;;
59872;SDS011;50750;51.636;4.948;2023-05-28T05:54:45;6.10;;;2.80;;
59872;SDS011;50750;51.636;4.948;2023-05-28T05:57:11;5.20;;;2.70;;
59872;SDS011;50750;51.636;4.948;2023-05-28T05:59:38;5.40;;;2.90;;
59872;SDS011;50750;51.636;4.948;2023-05-28T06:02:06;5.20;;;2.70;;
59872;SDS011;50750;51.636;4.948;2023-05-28T06:04:32;5.30;;;2.70;;
59872;SDS011;50750;51.636;4.948;2023-05-28T06:07:03;4.10;;;2.60;;
59872;SDS011;50750;51.636;4.948;2023-05-28T06:09:30;6.30;;;2.60;;
59872;SDS011;50750;51.636;4.948;2023-05-28T06:11:57;5.70;;;2.70;;
59872;SDS011;50750;51.636;4.948;2023-05-28T06:14:25;5.80;;;2.70;;
59872;SDS011;50750;51.636;4.948;2023-05-28T06:19:20;3.40;;;2.00;;
59872;SDS011;50750;51.636;4.948;2023-05-28T06:21:47;5.20;;;2.60;;
59872;SDS011;50750;51.636;4.948;2023-05-28T06:24:13;5.90;;;3.00;;
59872;SDS011;50750;51.636;4.948;2023-05-28T06:26:40;5.00;;;2.70;;
59872;SDS011;50750;51.636;4.948;2023-05-28T06:29:07;5.20;;;2.70;;
59872;SDS011;50750;51.636;4.948;2023-05-28T06:31:35;4.70;;;2.60;;
59872;SDS011;50750;51.636;4.948;2023-05-28T06:34:02;5.00;;;2.70;;
59872;SDS011;50750;51.636;4.948;2023-05-28T06:36:29;5.30;;;2.90;;
59872;SDS011;50750;51.636;4.948;2023-05-28T06:38:56;3.90;;;2.40;;
59872;SDS011;50750;51.636;4.948;2023-05-28T06:41:23;4.50;;;2.60;;
59872;SDS011;50750;51.636;4.948;2023-05-28T06:43:49;4.30;;;2.70;;
59872;SDS011;50750;51.636;4.948;2023-05-28T06:46:16;4.70;;;2.60;;
59872;SDS011;50750;51.636;4.948;2023-05-28T06:48:42;5.30;;;2.80;;
59872;SDS011;50750;51.636;4.948;2023-05-28T06:51:09;5.40;;;2.70;;
59872;SDS011;50750;51.636;4.948;2023-05-28T06:53:37;4.60;;;2.50;;
59872;SDS011;50750;51.636;4.948;2023-05-28T06:56:05;5.00;;;2.70;;
59872;SDS011;50750;51.636;4.948;2023-05-28T06:58:32;4.40;;;2.30;;
59872;SDS011;50750;51.636;4.948;2023-05-28T07:00:59;5.20;;;2.60;;
59872;SDS011;50750;51.636;4.948;2023-05-28T07:03:27;5.00;;;2.40;;
59872;SDS011;50750;51.636;4.948;2023-05-28T07:05:54;4.70;;;2.70;;
59872;SDS011;50750;51.636;4.948;2023-05-28T07:08:21;4.50;;;2.50;;
59872;SDS011;50750;51.636;4.948;2023-05-28T07:10:49;4.70;;;2.70;;
59872;SDS011;50750;51.636;4.948;2023-05-28T07:13:16;5.00;;;2.30;;
59872;SDS011;50750;51.636;4.948;2023-05-28T07:15:43;4.40;;;2.60;;
59872;SDS011;50750;51.636;4.948;2023-05-28T07:18:10;4.50;;;2.60;;
59872;SDS011;50750;51.636;4.948;2023-05-28T07:20:36;4.50;;;2.60;;
59872;SDS011;50750;51.636;4.948;2023-05-28T07:23:03;5.30;;;2.30;;
59872;SDS011;50750;51.636;4.948;2023-05-28T07:25:30;4.70;;;2.80;;
59872;SDS011;50750;51.636;4.948;2023-05-28T07:27:57;5.00;;;2.70;;
59872;SDS011;50750;51.636;4.948;2023-05-28T07:30:24;4.50;;;2.40;;
59872;SDS011;50750;51.636;4.948;2023-05-28T07:32:50;4.40;;;2.70;;
59872;SDS011;50750;51.636;4.948;2023-05-28T07:35:17;3.70;;;2.40;;
59872;SDS011;50750;51.636;4.948;2023-05-28T07:37:43;4.70;;;2.50;;
59872;SDS011;50750;51.636;4.948;2023-05-28T07:40:10;4.00;;;2.40;;
59872;SDS011;50750;51.636;4.948;2023-05-28T07:42:37;4.30;;;2.40;;
59872;SDS011;50750;51.636;4.948;2023-05-28T07:45:03;4.60;;;2.50;;
59872;SDS011;50750;51.636;4.948;2023-05-28T07:47:31;4.40;;;2.40;;
59872;SDS011;50750;51.636;4.948;2023-05-28T07:50:00;4.20;;;2.40;;
59872;SDS011;50750;51.636;4.948;2023-05-28T07:52:26;4.40;;;2.30;;
59872;SDS011;50750;51.636;4.948;2023-05-28T07:54:58;4.50;;;2.40;;
59872;SDS011;50750;51.636;4.948;2023-05-28T07:57:26;4.00;;;2.40;;
59872;SDS011;50750;51.636;4.948;2023-05-28T07:59:52;5.60;;;2.50;;
59872;SDS011;50750;51.636;4.948;2023-05-28T08:02:19;3.80;;;2.10;;
59872;SDS011;50750;51.636;4.948;2023-05-28T08:04:45;3.60;;;2.40;;
59872;SDS011;50750;51.636;4.948;2023-05-28T08:07:12;6.00;;;2.70;;
59872;SDS011;50750;51.636;4.948;2023-05-28T08:09:39;4.50;;;2.70;;
59872;SDS011;50750;51.636;4.948;2023-05-28T08:12:07;4.20;;;2.30;;
59872;SDS011;50750;51.636;4.948;2023-05-28T08:14:35;4.30;;;2.50;;
59872;SDS011;50750;51.636;4.948;2023-05-28T08:17:02;5.60;;;2.70;;
59872;SDS011;50750;51.636;4.948;2023-05-28T08:19:28;5.20;;;2.40;;
59872;SDS011;50750;51.636;4.948;2023-05-28T08:21:55;5.10;;;2.60;;
59872;SDS011;50750;51.636;4.948;2023-05-28T08:24:21;5.70;;;2.60;;
59872;SDS011;50750;51.636;4.948;2023-05-28T08:26:48;5.20;;;2.60;;
59872;SDS011;50750;51.636;4.948;2023-05-28T08:29:14;4.60;;;2.70;;
59872;SDS011;50750;51.636;4.948;2023-05-28T08:31:41;5.00;;;2.60;;
59872;SDS011;50750;51.636;4.948;2023-05-28T08:34:08;4.80;;;2.80;;
59872;SDS011;50750;51.636;4.948;2023-05-28T08:36:35;5.10;;;2.80;;
59872;SDS011;50750;51.636;4.948;2023-05-28T08:39:02;6.50;;;3.00;;
59872;SDS011;50750;51.636;4.948;2023-05-28T08:41:29;5.80;;;2.50;;
59872;SDS011;50750;51.636;4.948;2023-05-28T08:43:56;4.10;;;2.50;;
59872;SDS011;50750;51.636;4.948;2023-05-28T08:46:23;5.30;;;2.70;;
59872;SDS011;50750;51.636;4.948;2023-05-28T08:48:49;4.50;;;2.60;;
59872;SDS011;50750;51.636;4.948;2023-05-28T08:51:17;5.60;;;3.00;;
59872;SDS011;50750;51.636;4.948;2023-05-28T08:53:47;4.50;;;2.70;;
59872;SDS011;50750;51.636;4.948;2023-05-28T08:56:14;4.40;;;2.80;;
59872;SDS011;50750;51.636;4.948;2023-05-28T08:58:40;4.10;;;2.50;;
59872;SDS011;50750;51.636;4.948;2023-05-28T09:01:08;5.30;;;2.90;;
59872;SDS011;50750;51.636;4.948;2023-05-28T09:03:36;5.50;;;2.60;;
59872;SDS011;50750;51.636;4.948;2023-05-28T09:06:05;5.00;;;2.90;;
59872;SDS011;50750;51.636;4.948;2023-05-28T09:08:32;5.70;;;2.70;;
59872;SDS011;50750;51.636;4.948;2023-05-28T09:11:21;5.10;;;2.60;;
59872;SDS011;50750;51.636;4.948;2023-05-28T09:13:47;6.50;;;3.00;;
59872;SDS011;50750;51.636;4.948;2023-05-28T09:16:18;6.30;;;2.90;;
59872;SDS011;50750;51.636;4.948;2023-05-28T09:18:50;4.40;;;2.70;;
59872;SDS011;50750;51.636;4.948;2023-05-28T09:21:20;4.80;;;2.80;;
59872;SDS011;50750;51.636;4.948;2023-05-28T09:23:50;6.50;;;2.90;;
59872;SDS011;50750;51.636;4.948;2023-05-28T09:26:17;5.30;;;2.70;;
59872;SDS011;50750;51.636;4.948;2023-05-28T09:28:46;5.30;;;2.60;;
59872;SDS011;50750;51.636;4.948;2023-05-28T09:31:12;5.70;;;2.90;;
59872;SDS011;50750;51.636;4.948;2023-05-28T09:33:41;5.20;;;2.90;;
59872;SDS011;50750;51.636;4.948;2023-05-28T09:36:14;6.90;;;3.10;;
59872;SDS011;50750;51.636;4.948;2023-05-28T09:38:42;6.50;;;2.90;;
59872;SDS011;50750;51.636;4.948;2023-05-28T09:43:46;5.10;;;2.80;;
59872;SDS011;50750;51.636;4.948;2023-05-28T09:46:28;6.40;;;3.00;;
59872;SDS011;50750;51.636;4.948;2023-05-28T09:48:56;5.60;;;3.00;;
59872;SDS011;50750;51.636;4.948;2023-05-28T09:51:24;5.30;;;2.60;;
59872;SDS011;50750;51.636;4.948;2023-05-28T09:53:55;5.70;;;2.90;;
59872;SDS011;50750;51.636;4.948;2023-05-28T09:56:28;5.40;;;2.80;;
59872;SDS011;50750;51.636;4.948;2023-05-28T09:59:02;6.00;;;2.90;;
59872;SDS011;50750;51.636;4.948;2023-05-28T10:01:40;5.20;;;2.90;;
59872;SDS011;50750;51.636;4.948;2023-05-28T10:04:14;5.50;;;2.60;;
59872;SDS011;50750;51.636;4.948;2023-05-28T10:06:43;5.10;;;2.80;;
59872;SDS011;50750;51.636;4.948;2023-05-28T10:09:16;4.80;;;2.70;;
59872;SDS011;50750;51.636;4.948;2023-05-28T10:11:50;5.30;;;2.60;;
59872;SDS011;50750;51.636;4.948;2023-05-28T10:14:40;6.30;;;2.70;;
59872;SDS011;50750;51.636;4.948;2023-05-28T10:17:11;4.20;;;2.70;;
59872;SDS011;50750;51.636;4.948;2023-05-28T10:19:38;6.10;;;3.00;;
59872;SDS011;50750;51.636;4.948;2023-05-28T10:22:06;7.50;;;3.10;;
59872;SDS011;50750;51.636;4.948;2023-05-28T10:24:33;5.20;;;2.90;;
59872;SDS011;50750;51.636;4.948;2023-05-28T10:27:03;4.60;;;2.70;;
59872;SDS011;50750;51.636;4.948;2023-05-28T10:29:41;7.80;;;3.20;;
59872;SDS011;50750;51.636;4.948;2023-05-28T10:32:09;6.50;;;3.10;;
59872;SDS011;50750;51.636;4.948;2023-05-28T10:34:41;7.80;;;3.50;;
59872;SDS011;50750;51.636;4.948;2023-05-28T10:37:08;5.00;;;2.90;;
59872;SDS011;50750;51.636;4.948;2023-05-28T10:42:06;8.50;;;3.40;;
59872;SDS011;50750;51.636;4.948;2023-05-28T10:47:30;9.70;;;3.30;;
59872;SDS011;50750;51.636;4.948;2023-05-28T10:50:14;10.00;;;3.80;;
59872;SDS011;50750;51.636;4.948;2023-05-28T10:53:02;47.20;;;5.20;;
59872;SDS011;50750;51.636;4.948;2023-05-28T10:55:46;32.10;;;4.80;;
59872;SDS011;50750;51.636;4.948;2023-05-28T11:03:43;32.90;;;4.70;;
59872;SDS011;50750;51.636;4.948;2023-05-28T11:06:11;25.30;;;4.50;;
59872;SDS011;50750;51.636;4.948;2023-05-28T11:08:43;27.40;;;4.30;;
59872;SDS011;50750;51.636;4.948;2023-05-28T11:11:14;23.00;;;3.80;;
59872;SDS011;50750;51.636;4.948;2023-05-28T11:13:46;22.90;;;4.40;;
59872;SDS011;50750;51.636;4.948;2023-05-28T11:16:15;24.50;;;4.30;;
59872;SDS011;50750;51.636;4.948;2023-05-28T11:18:58;24.00;;;5.00;;
59872;SDS011;50750;51.636;4.948;2023-05-28T11:21:30;20.30;;;4.00;;
59872;SDS011;50750;51.636;4.948;2023-05-28T11:23:58;18.40;;;4.10;;
59872;SDS011;50750;51.636;4.948;2023-05-28T11:26:32;17.90;;;4.60;;
59872;SDS011;50750;51.636;4.948;2023-05-28T11:28:59;20.20;;;4.60;;
59872;SDS011;50750;51.636;4.948;2023-05-28T11:31:26;24.10;;;4.50;;
59872;SDS011;50750;51.636;4.948;2023-05-28T11:33:54;16.50;;;4.20;;
59872;SDS011;50750;51.636;4.948;2023-05-28T11:36:22;13.60;;;3.80;;
59872;SDS011;50750;51.636;4.948;2023-05-28T11:39:02;14.90;;;3.80;;
59872;SDS011;50750;51.636;4.948;2023-05-28T11:41:32;15.60;;;3.50;;
59872;SDS011;50750;51.636;4.948;2023-05-28T11:43:59;17.40;;;3.80;;
59872;SDS011;50750;51.636;4.948;2023-05-28T11:46:25;11.10;;;3.50;;
59872;SDS011;50750;51.636;4.948;2023-05-28T11:48:52;12.90;;;3.90;;
59872;SDS011;50750;51.636;4.948;2023-05-28T11:51:19;10.60;;;3.60;;
59872;SDS011;50750;51.636;4.948;2023-05-28T11:53:46;9.40;;;3.50;;
59872;SDS011;50750;51.636;4.948;2023-05-28T11:56:13;9.20;;;3.10;;
59872;SDS011;50750;51.636;4.948;2023-05-28T11:58:43;11.00;;;3.80;;
59872;SDS011;50750;51.636;4.948;2023-05-28T12:01:16;13.30;;;3.90;;
59872;SDS011;50750;51.636;4.948;2023-05-28T12:03:45;8.80;;;3.20;;
59872;SDS011;50750;51.636;4.948;2023-05-28T12:06:11;8.20;;;3.30;;
59872;SDS011;50750;51.636;4.948;2023-05-28T12:08:41;9.90;;;3.10;;
59872;SDS011;50750;51.636;4.948;2023-05-28T12:13:35;8.60;;;3.00;;
59872;SDS011;50750;51.636;4.948;2023-05-28T12:16:05;8.60;;;3.20;;
59872;SDS011;50750;51.636;4.948;2023-05-28T12:18:42;11.80;;;3.70;;
59872;SDS011;50750;51.636;4.948;2023-05-28T12:21:10;9.60;;;3.40;;
59872;SDS011;50750;51.636;4.948;2023-05-28T12:26:08;8.00;;;2.90;;
59872;SDS011;50750;51.636;4.948;2023-05-28T12:28:52;8.90;;;3.40;;
59872;SDS011;50750;51.636;4.948;2023-05-28T12:31:18;8.00;;;3.30;;
59872;SDS011;50750;51.636;4.948;2023-05-28T12:33:53;6.20;;;3.00;;
59872;SDS011;50750;51.636;4.948;2023-05-28T12:36:20;8.40;;;3.50;;
59872;SDS011;50750;51.636;4.948;2023-05-28T12:38:47;8.60;;;3.20;;
59872;SDS011;50750;51.636;4.948;2023-05-28T12:41:16;5.40;;;2.70;;
59872;SDS011;50750;51.636;4.948;2023-05-28T12:43:42;9.50;;;3.40;;
59872;SDS011;50750;51.636;4.948;2023-05-28T12:46:10;9.20;;;3.50;;
59872;SDS011;50750;51.636;4.948;2023-05-28T12:48:37;7.60;;;3.30;;
59872;SDS011;50750;51.636;4.948;2023-05-28T12:51:03;6.30;;;3.00;;
59872;SDS011;50750;51.636;4.948;2023-05-28T12:53:30;9.40;;;3.10;;
59872;SDS011;50750;51.636;4.948;2023-05-28T12:55:57;6.40;;;3.20;;
59872;SDS011;50750;51.636;4.948;2023-05-28T12:58:23;7.80;;;3.10;;
59872;SDS011;50750;51.636;4.948;2023-05-28T13:00:50;5.70;;;2.90;;
59872;SDS011;50750;51.636;4.948;2023-05-28T13:03:16;6.40;;;3.30;;
59872;SDS011;50750;51.636;4.948;2023-05-28T13:05:43;7.70;;;3.70;;
59872;SDS011;50750;51.636;4.948;2023-05-28T13:08:09;7.00;;;2.80;;
59872;SDS011;50750;51.636;4.948;2023-05-28T13:10:36;6.80;;;3.10;;
59872;SDS011;50750;51.636;4.948;2023-05-28T13:13:02;6.10;;;3.20;;
59872;SDS011;50750;51.636;4.948;2023-05-28T13:15:29;6.00;;;3.00;;
59872;SDS011;50750;51.636;4.948;2023-05-28T13:17:56;7.40;;;3.30;;
59872;SDS011;50750;51.636;4.948;2023-05-28T13:20:23;5.70;;;3.20;;
59872;SDS011;50750;51.636;4.948;2023-05-28T13:22:50;5.40;;;3.00;;
59872;SDS011;50750;51.636;4.948;2023-05-28T13:25:16;6.00;;;3.00;;
59872;SDS011;50750;51.636;4.948;2023-05-28T13:27:43;5.30;;;2.80;;
59872;SDS011;50750;51.636;4.948;2023-05-28T13:30:10;7.10;;;3.10;;
59872;SDS011;50750;51.636;4.948;2023-05-28T13:32:37;8.00;;;3.30;;
59872;SDS011;50750;51.636;4.948;2023-05-28T13:35:03;6.10;;;3.10;;
59872;SDS011;50750;51.636;4.948;2023-05-28T13:37:31;7.90;;;3.10;;
59872;SDS011;50750;51.636;4.948;2023-05-28T13:39:58;6.30;;;2.90;;
59872;SDS011;50750;51.636;4.948;2023-05-28T13:42:25;6.10;;;3.40;;
59872;SDS011;50750;51.636;4.948;2023-05-28T13:44:52;7.40;;;2.90;;
59872;SDS011;50750;51.636;4.948;2023-05-28T13:47:18;6.70;;;3.20;;
59872;SDS011;50750;51.636;4.948;2023-05-28T13:49:46;6.50;;;3.00;;
59872;SDS011;50750;51.636;4.948;2023-05-28T13:52:12;7.40;;;3.00;;
59872;SDS011;50750;51.636;4.948;2023-05-28T13:54:39;7.20;;;3.30;;
59872;SDS011;50750;51.636;4.948;2023-05-28T13:57:07;5.90;;;2.90;;
59872;SDS011;50750;51.636;4.948;2023-05-28T13:59:33;6.80;;;3.30;;
59872;SDS011;50750;51.636;4.948;2023-05-28T14:02:00;7.80;;;3.40;;
59872;SDS011;50750;51.636;4.948;2023-05-28T14:04:27;5.80;;;2.80;;
59872;SDS011;50750;51.636;4.948;2023-05-28T14:06:54;5.70;;;3.30;;
59872;SDS011;50750;51.636;4.948;2023-05-28T14:09:20;7.10;;;3.90;;
59872;SDS011;50750;51.636;4.948;2023-05-28T14:11:47;7.20;;;3.30;;
59872;SDS011;50750;51.636;4.948;2023-05-28T14:14:13;7.90;;;3.40;;
59872;SDS011;50750;51.636;4.948;2023-05-28T14:16:40;7.20;;;3.10;;
59872;SDS011;50750;51.636;4.948;2023-05-28T14:19:07;6.70;;;3.00;;
59872;SDS011;50750;51.636;4.948;2023-05-28T14:21:33;7.90;;;3.20;;
59872;SDS011;50750;51.636;4.948;2023-05-28T14:24:00;7.10;;;3.10;;
59872;SDS011;50750;51.636;4.948;2023-05-28T14:26:27;8.50;;;3.50;;
59872;SDS011;50750;51.636;4.948;2023-05-28T14:28:53;5.20;;;3.00;;
59872;SDS011;50750;51.636;4.948;2023-05-28T14:31:20;7.00;;;3.10;;
59872;SDS011;50750;51.636;4.948;2023-05-28T14:33:47;6.60;;;3.30;;
59872;SDS011;50750;51.636;4.948;2023-05-28T14:36:14;7.40;;;3.20;;
59872;SDS011;50750;51.636;4.948;2023-05-28T14:38:41;5.90;;;3.30;;
59872;SDS011;50750;51.636;4.948;2023-05-28T14:41:07;7.00;;;3.30;;
59872;SDS011;50750;51.636;4.948;2023-05-28T14:43:34;7.00;;;3.40;;
59872;SDS011;50750;51.636;4.948;2023-05-28T14:46:00;7.20;;;3.00;;
59872;SDS011;50750;51.636;4.948;2023-05-28T14:48:28;7.30;;;3.60;;
59872;SDS011;50750;51.636;4.948;2023-05-28T14:50:55;6.00;;;3.10;;
59872;SDS011;50750;51.636;4.948;2023-05-28T14:53:25;5.60;;;2.90;;
59872;SDS011;50750;51.636;4.948;2023-05-28T14:55:51;7.80;;;3.70;;
59872;SDS011;50750;51.636;4.948;2023-05-28T14:58:18;5.80;;;3.20;;
59872;SDS011;50750;51.636;4.948;2023-05-28T15:00:44;5.40;;;3.10;;
59872;SDS011;50750;51.636;4.948;2023-05-28T15:03:11;5.10;;;3.00;;
59872;SDS011;50750;51.636;4.948;2023-05-28T15:05:41;7.30;;;3.30;;
59872;SDS011;50750;51.636;4.948;2023-05-28T15:08:07;7.70;;;3.10;;
59872;SDS011;50750;51.636;4.948;2023-05-28T15:10:34;6.30;;;3.30;;